Wan Hai 273 — 9V7586 — position and weather

sailwx.info

Track history (hours):
 
Tides and Currents Weather Stations Pressure Air Temp Water Temp Dewpoint Dewpoint Depression Visibility Wind Speed Wind Dir Waves Ship Positions

Wan Hai 273

Last reported at 2016-May-28 03:32 UTC. Time now 2016-May-30 04:55 UTC.
Position N 34°31' E 138°27'.

Length 172 m; draft 7.3 m.

Type: Cargo ship. MMSI: 566406000.

Date/timePositionNaut miles runAvg speedWind from/ knotsBaromVisibWave heightAir tempDewpointWater temp
2016-May-28 03:32N 34°31' E 138°27'5216.0
2016-May-28 00:17N 34°56' E 139°23'1216.9
2016-May-27 23:33N 35°02' E 139°36'1414.1
2016-May-27 22:33N 35°14' E 139°46'1211.8
2016-May-27 21:34N 35°25' E 139°45'1110.9
2016-May-27 20:34N 35°36' E 139°46'0 0.1
2016-May-27 19:30N 35°36' E 139°46'0 0.0
2016-May-27 18:33N 35°36' E 139°46'0 0.0
2016-May-27 17:30N 35°36' E 139°46'0 0.0
2016-May-27 16:33N 35°36' E 139°46'0 0.0
2016-May-27 15:33N 35°36' E 139°46'0 0.0
2016-May-27 14:33N 35°36' E 139°46'0 0.0
2016-May-27 13:33N 35°36' E 139°46'0 0.0
2016-May-27 12:33N 35°36' E 139°46'0 0.0
2016-May-27 11:33N 35°36' E 139°46'0 0.0
2016-May-27 10:33N 35°36' E 139°46'0 0.0
2016-May-27 09:33N 35°36' E 139°46'0 0.3
2016-May-27 08:33N 35°36' E 139°47'9 9.1
2016-May-27 07:33N 35°27' E 139°50'7 7.4
2016-May-27 06:33N 35°26' E 139°41'0 0.0
2016-May-27 05:31N 35°26' E 139°41'0 0.0
2016-May-27 04:31N 35°26' E 139°41'0 0.0
2016-May-27 03:31N 35°26' E 139°41'0 0.0
2016-May-27 02:31N 35°26' E 139°41'0 0.0
2016-May-27 01:31N 35°26' E 139°41'0 0.0
2016-May-27 00:31N 35°26' E 139°41'0 0.0
2016-May-26 23:31N 35°26' E 139°41'2 2.1
2016-May-26 22:34N 35°25' E 139°43'8 8.5
2016-May-26 21:34N 35°17' E 139°45'10 9.7
2016-May-26 20:34N 35°07' E 139°46'1312.6
2016-May-26 19:33N 34°56' E 139°39'  
2016-May-23 07:27N 22°07' E 114°24'1915.3
2016-May-23 06:12N 22°16' E 114°06'811.3
2016-May-23 05:28N 22°21' E 113°59'8 8.4
2016-May-23 04:32N 22°27' E 113°54'1 0.4
2016-May-23 02:24N 22°28' E 113°54'0 0.0
2016-May-23 01:24N 22°28' E 113°54'0 0.0
2016-May-22 23:06N 22°28' E 113°54'0 0.1
2016-May-22 22:30N 22°28' E 113°54'0 0.1
2016-May-22 21:30N 22°28' E 113°54'0 0.0
2016-May-22 20:30N 22°28' E 113°54'0 0.0
2016-May-22 18:33N 22°28' E 113°54'6 6.0
2016-May-22 17:31N 22°22' E 113°55'1010.3
2016-May-22 16:33N 22°19' E 114°05'2 0.7
2016-May-22 13:19N 22°20' E 114°07'0 0.0
2016-May-22 12:31N 22°20' E 114°07'0 0.0
2016-May-22 10:19N 22°20' E 114°07'0 0.0
2016-May-22 09:16N 22°20' E 114°07'0 0.0
2016-May-22 08:31N 22°20' E 114°07'0 0.0
2016-May-22 07:23N 22°20' E 114°07'2 2.6
2016-May-22 06:33N 22°19' E 114°06'1110.9
2016-May-22 05:31N 22°09' E 114°13'1010.9
2016-May-22 04:33N 22°03' E 114°22'7 3.6
2016-May-22 02:32N 21°56' E 114°24'  
Track history (hours):
 
Tides and Currents Weather Stations Pressure Air Temp Water Temp Dewpoint Dewpoint Depression Visibility Wind Speed Wind Dir Waves Ship Positions

Wan Hai 273

Last reported at 2016-May-28 03:32 UTC. Time now 2016-May-30 04:55 UTC.
Position N 34°31' E 138°27'.

Length 172 m; draft 7.3 m.

Type: Cargo ship. MMSI: 566406000.

Date/timePositionNaut miles runAvg speedWind from/ knotsBaromVisibWave heightAir tempDewpointWater temp
2016-May-28 03:32N 34°31' E 138°27'5216.0
2016-May-28 00:17N 34°56' E 139°23'1216.9
2016-May-27 23:33N 35°02' E 139°36'1414.1
2016-May-27 22:33N 35°14' E 139°46'1211.8
2016-May-27 21:34N 35°25' E 139°45'1110.9
2016-May-27 20:34N 35°36' E 139°46'0 0.1
2016-May-27 19:30N 35°36' E 139°46'0 0.0
2016-May-27 18:33N 35°36' E 139°46'0 0.0
2016-May-27 17:30N 35°36' E 139°46'0 0.0
2016-May-27 16:33N 35°36' E 139°46'0 0.0
2016-May-27 15:33N 35°36' E 139°46'0 0.0
2016-May-27 14:33N 35°36' E 139°46'0 0.0
2016-May-27 13:33N 35°36' E 139°46'0 0.0
2016-May-27 12:33N 35°36' E 139°46'0 0.0
2016-May-27 11:33N 35°36' E 139°46'0 0.0
2016-May-27 10:33N 35°36' E 139°46'0 0.0
2016-May-27 09:33N 35°36' E 139°46'0 0.3
2016-May-27 08:33N 35°36' E 139°47'9 9.1
2016-May-27 07:33N 35°27' E 139°50'7 7.4
2016-May-27 06:33N 35°26' E 139°41'0 0.0
2016-May-27 05:31N 35°26' E 139°41'0 0.0
2016-May-27 04:31N 35°26' E 139°41'0 0.0
2016-May-27 03:31N 35°26' E 139°41'0 0.0
2016-May-27 02:31N 35°26' E 139°41'0 0.0
2016-May-27 01:31N 35°26' E 139°41'0 0.0
2016-May-27 00:31N 35°26' E 139°41'0 0.0
2016-May-26 23:31N 35°26' E 139°41'2 2.1
2016-May-26 22:34N 35°25' E 139°43'8 8.5
2016-May-26 21:34N 35°17' E 139°45'10 9.7
2016-May-26 20:34N 35°07' E 139°46'1312.6
2016-May-26 19:33N 34°56' E 139°39'  
2016-May-23 07:27N 22°07' E 114°24'1915.3
2016-May-23 06:12N 22°16' E 114°06'811.3
2016-May-23 05:28N 22°21' E 113°59'8 8.4
2016-May-23 04:32N 22°27' E 113°54'1 0.4
2016-May-23 02:24N 22°28' E 113°54'0 0.0
2016-May-23 01:24N 22°28' E 113°54'0 0.0
2016-May-22 23:06N 22°28' E 113°54'0 0.1
2016-May-22 22:30N 22°28' E 113°54'0 0.1
2016-May-22 21:30N 22°28' E 113°54'0 0.0
2016-May-22 20:30N 22°28' E 113°54'0 0.0
2016-May-22 18:33N 22°28' E 113°54'6 6.0
2016-May-22 17:31N 22°22' E 113°55'1010.3
2016-May-22 16:33N 22°19' E 114°05'2 0.7
2016-May-22 13:19N 22°20' E 114°07'0 0.0
2016-May-22 12:31N 22°20' E 114°07'0 0.0
2016-May-22 10:19N 22°20' E 114°07'0 0.0
2016-May-22 09:16N 22°20' E 114°07'0 0.0
2016-May-22 08:31N 22°20' E 114°07'0 0.0
2016-May-22 07:23N 22°20' E 114°07'2 2.6
2016-May-22 06:33N 22°19' E 114°06'1110.9
2016-May-22 05:31N 22°09' E 114°13'1010.9
2016-May-22 04:33N 22°03' E 114°22'7 3.6
2016-May-22 02:32N 21°56' E 114°24'  

Dump ship's entire track history